Time;durP1;ratioP1;P1;durP2;ratioP2;P2;SDS_P1;SDS_P2;PMS_P1;PMS_P2;Temp;Humidity;BMP_temperature;BMP_pressure;BME280_temperature;BME280_humidity;BME280_pressure;Samples;Min_cycle;Max_cycle;Signal;HPM_P1;HPM_P2
2023/02/05 00:01:30;;;;;;;4.63;3.70;;;0.50;76.10;;;;;;5103461;28;20055;-61
2023/02/05 00:03:56;;;;;;;4.75;3.80;;;0.50;76.30;;;;;;5096249;28;20081;-61
2023/02/05 00:06:22;;;;;;;5.20;4.00;;;0.50;76.10;;;;;;5094715;28;20439;-64
2023/02/05 00:08:47;;;;;;;5.20;4.45;;;0.40;76.20;;;;;;5081414;28;20059;-62
2023/02/05 00:11:13;;;;;;;5.13;4.30;;;0.50;76.20;;;;;;5095589;28;20052;-63
2023/02/05 00:13:41;;;;;;;5.45;4.15;;;0.50;76.10;;;;;;5101851;28;20032;-64
2023/02/05 00:16:18;;;;;;;5.63;4.32;;;0.40;76.10;;;;;;5074524;28;20097;-63
2023/02/05 00:18:44;;;;;;;4.70;3.95;;;0.40;76.20;;;;;;5102851;28;20034;-64
2023/02/05 00:21:11;;;;;;;5.45;4.25;;;0.40;76.20;;;;;;5087059;28;20040;-62
2023/02/05 00:23:38;;;;;;;5.03;4.13;;;0.40;76.30;;;;;;5099024;28;20024;-62
2023/02/05 00:26:05;;;;;;;5.70;4.30;;;0.40;76.40;;;;;;5096617;28;20024;-63
2023/02/05 00:28:32;;;;;;;4.80;4.03;;;0.40;76.40;;;;;;5089081;28;20036;-64
2023/02/05 00:30:58;;;;;;;5.65;4.10;;;0.40;76.50;;;;;;5076199;28;20036;-61
2023/02/05 00:33:24;;;;;;;5.22;4.30;;;0.40;76.50;;;;;;5085374;28;20700;-61
2023/02/05 00:35:50;;;;;;;5.35;4.20;;;0.40;76.50;;;;;;5100167;28;20058;-60
2023/02/05 00:38:16;;;;;;;5.80;4.20;;;0.40;76.50;;;;;;5100704;28;20057;-60
2023/02/05 00:40:41;;;;;;;4.95;4.35;;;0.40;76.50;;;;;;5093855;28;20039;-62
2023/02/05 00:43:07;;;;;;;6.35;4.43;;;0.40;76.60;;;;;;5089699;28;20040;-61
2023/02/05 00:45:34;;;;;;;5.55;4.40;;;0.40;76.50;;;;;;5099846;28;20024;-50
2023/02/05 00:48:06;;;;;;;4.80;4.20;;;0.50;76.70;;;;;;5092272;28;20419;-56
2023/02/05 00:50:32;;;;;;;7.25;4.47;;;0.50;76.80;;;;;;5088948;28;20036;-61
2023/02/05 00:52:58;;;;;;;4.78;3.90;;;0.50;76.70;;;;;;5087046;28;20190;-61
2023/02/05 00:55:25;;;;;;;6.20;4.63;;;0.50;76.60;;;;;;5076576;28;20115;-61
2023/02/05 00:57:50;;;;;;;5.07;4.57;;;0.50;76.50;;;;;;5087407;28;20075;-62
2023/02/05 01:00:16;;;;;;;5.00;4.07;;;0.40;76.60;;;;;;5097717;28;20116;-63
2023/02/05 01:02:42;;;;;;;6.25;4.40;;;0.40;76.70;;;;;;5101748;28;20580;-63
2023/02/05 01:05:08;;;;;;;5.15;4.20;;;0.40;76.70;;;;;;5092185;28;20111;-63
2023/02/05 01:07:34;;;;;;;5.85;4.72;;;0.40;76.60;;;;;;5087422;28;20043;-62
2023/02/05 01:10:00;;;;;;;5.82;4.97;;;0.40;76.70;;;;;;5098492;28;20036;-61
2023/02/05 01:12:25;;;;;;;5.93;4.72;;;0.40;76.80;;;;;;5092158;28;20021;-54
2023/02/05 01:14:52;;;;;;;6.55;4.47;;;0.40;76.90;;;;;;5081827;28;20036;-58
2023/02/05 01:17:19;;;;;;;6.68;4.30;;;0.40;77.00;;;;;;5078161;28;20515;-64
2023/02/05 01:19:44;;;;;;;5.15;4.53;;;0.40;77.00;;;;;;5092757;28;20040;-63
2023/02/05 01:22:10;;;;;;;6.38;4.68;;;0.40;77.00;;;;;;5095864;28;20038;-61
2023/02/05 01:24:36;;;;;;;6.28;4.72;;;0.40;76.80;;;;;;5095986;28;20109;-61
2023/02/05 01:27:02;;;;;;;5.68;4.70;;;0.40;77.10;;;;;;5094011;28;20033;-61
2023/02/05 01:29:29;;;;;;;7.10;5.22;;;0.30;77.00;;;;;;5093901;28;20498;-61
2023/02/05 01:31:55;;;;;;;6.57;4.85;;;0.30;77.00;;;;;;5093822;28;20089;-62
2023/02/05 01:34:21;;;;;;;6.43;5.28;;;0.30;77.10;;;;;;5092452;28;20525;-63
2023/02/05 01:36:47;;;;;;;5.35;4.82;;;0.30;77.40;;;;;;5096937;28;20146;-62
2023/02/05 01:39:13;;;;;;;5.70;4.65;;;0.30;77.30;;;;;;5097106;28;20065;-63
2023/02/05 01:41:41;;;;;;;6.53;4.82;;;0.30;77.40;;;;;;5081367;28;20036;-51
2023/02/05 01:44:13;;;;;;;6.28;5.15;;;0.30;77.40;;;;;;5082821;28;20436;-52
2023/02/05 01:46:42;;;;;;;7.20;5.25;;;0.30;77.40;;;;;;5105764;28;20036;-52
2023/02/05 01:49:15;;;;;;;6.82;5.10;;;0.30;77.40;;;;;;5083366;28;20474;-54
2023/02/05 01:51:42;;;;;;;6.22;5.15;;;0.30;77.50;;;;;;5092107;28;20029;-60
2023/02/05 01:54:08;;;;;;;5.18;4.65;;;0.20;77.50;;;;;;5085414;28;20069;-60
2023/02/05 01:56:43;;;;;;;7.28;5.07;;;0.20;77.60;;;;;;5091247;28;20059;-59
2023/02/05 01:59:15;;;;;;;6.00;5.40;;;0.20;77.50;;;;;;5080170;28;20028;-59
2023/02/05 02:01:40;;;;;;;;;;;0.20;77.60;;;;;;5080261;28;20032;-60
2023/02/05 02:04:08;;;;;;;6.78;5.00;;;0.20;77.60;;;;;;5088618;28;19915;-60
2023/02/05 02:06:35;;;;;;;6.30;5.13;;;0.20;77.80;;;;;;5078801;28;20386;-60
2023/02/05 02:09:03;;;;;;;6.47;5.47;;;0.20;78.00;;;;;;5073969;28;20024;-59
2023/02/05 02:11:33;;;;;;;7.10;5.43;;;0.20;77.90;;;;;;5091075;28;20080;-51
2023/02/05 02:14:01;;;;;;;5.47;4.93;;;0.30;77.80;;;;;;5087915;28;20020;-52
2023/02/05 02:16:28;;;;;;;6.05;5.35;;;0.30;77.90;;;;;;5093396;28;20032;-60
2023/02/05 02:18:54;;;;;;;8.02;5.18;;;0.30;77.80;;;;;;5084007;28;20115;-60
2023/02/05 02:22:17;;;;;;;6.10;4.90;;;0.30;77.90;;;;;;5082454;28;20394;-59
2023/02/05 02:25:01;;;;;;;6.78;5.35;;;0.30;77.80;;;;;;5012230;28;20507;-60
2023/02/05 02:28:17;;;;;;;5.60;4.88;;;0.30;77.80;;;;;;5015037;28;20085;-65
2023/02/05 02:30:57;;;;;;;5.85;5.03;;;0.20;77.80;;;;;;5051730;28;20051;-61
2023/02/05 02:33:31;;;;;;;6.55;4.78;;;0.30;78.00;;;;;;5093808;28;20065;-61
2023/02/05 02:36:03;;;;;;;6.82;5.15;;;0.20;78.10;;;;;;5097525;28;20397;-62
2023/02/05 02:38:41;;;;;;;6.15;5.10;;;0.30;78.20;;;;;;5101353;28;20433;-62
2023/02/05 02:41:18;;;;;;;6.93;5.47;;;0.30;78.10;;;;;;5104197;28;20050;-61
2023/02/05 02:44:05;;;;;;;7.20;5.75;;;0.30;78.20;;;;;;5086631;28;20085;-61
2023/02/05 02:46:55;;;;;;;6.13;5.25;;;0.30;78.20;;;;;;5091363;28;20028;-62
2023/02/05 02:49:27;;;;;;;5.43;4.70;;;0.30;78.20;;;;;;5088976;28;20032;-60
2023/02/05 02:51:56;;;;;;;7.80;5.70;;;0.30;78.30;;;;;;5102664;28;20066;-48
2023/02/05 02:54:25;;;;;;;6.22;5.20;;;0.30;78.30;;;;;;5093291;28;20106;-53
2023/02/05 02:56:52;;;;;;;8.23;5.97;;;0.30;78.40;;;;;;5091408;28;20497;-62
2023/02/05 02:59:22;;;;;;;6.20;4.93;;;0.30;78.20;;;;;;5096795;28;20032;-62
2023/02/05 03:01:53;;;;;;;6.80;5.15;;;0.30;78.30;;;;;;5093531;28;20047;-60
2023/02/05 03:04:33;;;;;;;6.60;5.25;;;0.30;78.30;;;;;;5090563;28;20024;-59
2023/02/05 03:07:23;;;;;;;6.63;5.13;;;0.30;78.20;;;;;;5087742;28;20039;-66
2023/02/05 03:09:55;;;;;;;5.47;4.70;;;0.40;78.20;;;;;;5105417;28;20070;-67
2023/02/05 03:12:21;;;;;;;6.47;5.07;;;0.30;78.20;;;;;;5087091;28;20382;-59
2023/02/05 03:14:47;;;;;;;6.63;5.30;;;0.30;78.20;;;;;;5076072;28;20028;-60
2023/02/05 03:17:17;;;;;;;5.55;4.78;;;0.30;78.20;;;;;;5079736;28;20433;-50
2023/02/05 03:19:45;;;;;;;6.03;4.82;;;0.30;78.20;;;;;;5090805;28;20039;-51
2023/02/05 03:22:11;;;;;;;7.10;4.97;;;0.30;78.40;;;;;;5092992;28;20035;-53
2023/02/05 03:24:38;;;;;;;6.65;4.95;;;0.30;78.40;;;;;;5086370;28;20035;-53
2023/02/05 03:27:03;;;;;;;6.65;5.13;;;0.30;78.40;;;;;;5091464;28;20031;-68
2023/02/05 03:29:32;;;;;;;6.60;5.30;;;0.30;78.40;;;;;;5099295;28;20032;-68
2023/02/05 03:32:01;;;;;;;6.50;5.07;;;0.30;78.40;;;;;;5086655;28;20043;-65
2023/02/05 03:34:41;;;;;;;6.20;4.72;;;0.30;78.60;;;;;;5103176;28;20024;-67
2023/02/05 03:37:20;;;;;;;6.43;5.00;;;0.30;78.40;;;;;;5083502;28;20810;-61
2023/02/05 03:40:03;;;;;;;6.53;4.75;;;0.30;78.50;;;;;;5094121;28;20028;-62
2023/02/05 03:42:45;;;;;;;6.80;5.20;;;0.30;78.40;;;;;;5097736;28;20024;-62
2023/02/05 03:45:22;;;;;;;5.90;5.03;;;0.30;78.50;;;;;;5079556;28;20039;-61
2023/02/05 03:48:17;;;;;;;8.00;5.13;;;0.30;78.50;;;;;;5091935;28;20042;-51
2023/02/05 03:51:00;;;;;;;6.10;4.80;;;0.30;79.10;;;;;;5081988;28;20097;-60
2023/02/05 03:53:47;;;;;;;6.18;4.97;;;0.30;78.60;;;;;;5095458;28;20056;-60
2023/02/05 03:56:20;;;;;;;6.55;5.32;;;0.30;78.70;;;;;;5097872;28;20032;-60
2023/02/05 03:58:48;;;;;;;6.25;4.88;;;0.30;78.90;;;;;;5091288;28;20403;-60
2023/02/05 04:01:15;;;;;;;6.40;4.97;;;0.30;78.80;;;;;;5082335;28;20043;-60
2023/02/05 04:03:40;;;;;;;5.15;4.50;;;0.30;78.80;;;;;;5090130;28;20118;-61
2023/02/05 04:06:07;;;;;;;5.65;4.90;;;0.30;78.80;;;;;;5094962;28;20107;-67
2023/02/05 04:08:32;;;;;;;6.93;5.03;;;0.40;78.90;;;;;;5099302;28;20641;-67
2023/02/05 04:10:58;;;;;;;5.93;4.55;;;0.40;78.90;;;;;;5095865;28;20077;-60
2023/02/05 04:13:23;;;;;;;5.90;4.60;;;0.30;78.90;;;;;;5094959;28;20028;-60
2023/02/05 04:15:50;;;;;;;6.28;4.82;;;0.40;78.90;;;;;;5088071;28;20032;-60
2023/02/05 04:18:16;;;;;;;5.97;4.88;;;0.40;78.90;;;;;;5093510;28;20035;-59
2023/02/05 04:20:42;;;;;;;6.93;5.10;;;0.40;78.90;;;;;;5081669;28;20124;-63
2023/02/05 04:23:07;;;;;;;7.35;5.13;;;0.40;78.90;;;;;;5083730;28;20569;-66
2023/02/05 04:25:35;;;;;;;5.93;4.80;;;0.40;79.00;;;;;;5082845;28;20103;-61
2023/02/05 04:28:01;;;;;;;5.60;4.78;;;0.40;79.00;;;;;;5093442;28;20469;-61
2023/02/05 04:30:27;;;;;;;6.55;5.15;;;0.40;79.00;;;;;;5082695;28;20120;-62
2023/02/05 04:32:52;;;;;;;6.03;4.80;;;0.40;79.10;;;;;;5082983;28;20059;-62
2023/02/05 04:35:18;;;;;;;6.28;4.97;;;0.50;79.20;;;;;;5084845;28;20499;-62
2023/02/05 04:37:43;;;;;;;6.07;5.13;;;0.50;79.00;;;;;;5106297;28;20031;-61
2023/02/05 04:40:09;;;;;;;10.52;5.78;;;0.50;79.10;;;;;;5096570;28;20031;-61
2023/02/05 04:42:35;;;;;;;6.32;4.70;;;0.50;79.00;;;;;;5096063;28;20067;-60
2023/02/05 04:45:01;;;;;;;7.82;5.57;;;0.50;79.00;;;;;;5080627;28;20036;-60
2023/02/05 04:47:26;;;;;;;6.60;5.03;;;0.50;78.90;;;;;;5098815;28;20028;-50
2023/02/05 04:49:52;;;;;;;6.57;5.18;;;0.50;79.00;;;;;;5102807;28;20070;-53
2023/02/05 04:52:17;;;;;;;7.90;5.78;;;0.50;79.00;;;;;;5093420;28;20023;-52
2023/02/05 04:54:43;;;;;;;5.93;5.07;;;0.50;79.00;;;;;;5090063;28;20490;-50
2023/02/05 04:57:09;;;;;;;6.80;4.90;;;0.50;79.00;;;;;;5099367;28;20048;-60
2023/02/05 04:59:34;;;;;;;7.00;5.30;;;0.50;79.00;;;;;;5089396;28;20047;-60
2023/02/05 05:02:00;;;;;;;7.00;5.15;;;0.60;79.10;;;;;;5104875;28;20082;-59
2023/02/05 05:04:25;;;;;;;7.10;5.22;;;0.60;79.00;;;;;;5079015;28;20462;-60
2023/02/05 05:06:51;;;;;;;6.22;4.78;;;0.60;78.90;;;;;;5086664;28;20107;-63
2023/02/05 05:09:19;;;;;;;5.75;5.03;;;0.60;79.00;;;;;;5093878;28;20464;-61
2023/02/05 05:11:45;;;;;;;7.35;5.57;;;0.60;78.80;;;;;;5099437;28;20040;-61
2023/02/05 05:14:10;;;;;;;6.57;4.88;;;0.60;78.80;;;;;;5098900;28;20031;-61
2023/02/05 05:16:36;;;;;;;6.35;4.70;;;0.60;78.90;;;;;;5099384;28;20039;-54
2023/02/05 05:19:02;;;;;;;5.45;4.70;;;0.60;78.90;;;;;;5097868;28;20024;-54
2023/02/05 05:21:28;;;;;;;6.28;4.88;;;0.60;78.90;;;;;;5085996;28;20016;-61
2023/02/05 05:23:53;;;;;;;5.90;5.05;;;0.60;78.80;;;;;;5102670;28;20437;-62
2023/02/05 05:26:19;;;;;;;6.75;5.10;;;0.60;78.80;;;;;;5101158;28;20031;-56
2023/02/05 05:28:44;;;;;;;5.82;4.90;;;0.60;78.90;;;;;;5090822;28;20431;-57
2023/02/05 05:31:15;;;;;;;5.35;4.65;;;0.60;78.80;;;;;;5101154;28;20031;-53
2023/02/05 05:33:41;;;;;;;7.22;5.15;;;0.60;78.90;;;;;;5076616;28;20047;-54
2023/02/05 05:36:07;;;;;;;5.88;4.97;;;0.60;78.80;;;;;;5089289;28;20412;-56
2023/02/05 05:38:33;;;;;;;7.05;5.15;;;0.60;78.80;;;;;;5098780;28;20027;-54
2023/02/05 05:43:46;;;;;;;6.57;4.82;;;0.60;78.80;;;;;;5080351;28;20563;-62
2023/02/05 05:46:20;;;;;;;8.15;5.45;;;0.60;78.70;;;;;;5097943;28;20478;-60
2023/02/05 05:48:54;;;;;;;5.78;4.93;;;0.60;78.70;;;;;;5106363;28;20479;-61
2023/02/05 05:51:21;;;;;;;6.00;4.90;;;0.60;78.80;;;;;;5090394;28;20060;-60
2023/02/05 05:53:46;;;;;;;8.15;5.85;;;0.60;78.80;;;;;;5094995;28;20101;-60
2023/02/05 05:56:13;;;;;;;6.65;4.93;;;0.60;78.70;;;;;;5089576;28;20024;-61
2023/02/05 05:58:38;;;;;;;6.50;5.32;;;0.60;78.60;;;;;;5078312;28;20032;-61
2023/02/05 06:01:06;;;;;;;6.72;5.50;;;0.60;78.80;;;;;;5092921;28;20392;-62
2023/02/05 06:03:32;;;;;;;6.28;5.07;;;0.60;78.80;;;;;;5088541;28;20059;-62
2023/02/05 06:06:05;;;;;;;7.05;5.40;;;0.60;78.80;;;;;;5087253;28;20033;-51
2023/02/05 06:08:32;;;;;;;6.97;4.97;;;0.60;78.70;;;;;;5089995;28;20036;-50
2023/02/05 06:10:58;;;;;;;5.72;5.07;;;0.60;78.90;;;;;;5091111;28;20527;-60
2023/02/05 06:13:24;;;;;;;6.07;4.72;;;0.60;78.80;;;;;;5088877;28;20056;-61
2023/02/05 06:15:50;;;;;;;6.50;5.55;;;0.70;78.80;;;;;;5095905;28;20050;-65
2023/02/05 06:18:17;;;;;;;7.10;6.00;;;0.60;78.80;;;;;;5090997;28;20020;-68
2023/02/05 06:20:43;;;;;;;6.80;5.45;;;0.70;78.90;;;;;;5096893;28;20036;-53
2023/02/05 06:23:08;;;;;;;5.72;4.93;;;0.70;78.80;;;;;;5094690;28;20040;-53
2023/02/05 06:25:34;;;;;;;6.97;4.93;;;0.70;78.90;;;;;;5095025;28;20032;-51
2023/02/05 06:28:00;;;;;;;7.20;5.05;;;0.70;78.80;;;;;;5096615;28;20088;-55
2023/02/05 06:30:25;;;;;;;6.05;5.03;;;0.70;78.80;;;;;;5100422;28;20036;-52
2023/02/05 06:32:51;;;;;;;5.78;4.97;;;0.70;78.60;;;;;;5098984;28;20066;-53
2023/02/05 06:35:17;;;;;;;7.05;4.80;;;0.70;78.70;;;;;;5089689;28;20027;-54
2023/02/05 06:37:43;;;;;;;7.15;5.50;;;0.70;78.80;;;;;;5099407;28;20070;-52
2023/02/05 06:40:09;;;;;;;5.78;4.75;;;0.70;78.80;;;;;;5098045;28;20059;-50
2023/02/05 06:42:34;;;;;;;6.60;4.40;;;0.70;78.90;;;;;;5101938;28;20067;-60
2023/02/05 06:45:00;;;;;;;5.53;4.78;;;0.70;78.90;;;;;;5073397;28;20480;-59
2023/02/05 06:47:26;;;;;;;5.80;4.70;;;0.80;78.90;;;;;;5088128;28;20082;-60
2023/02/05 06:49:51;;;;;;;6.72;4.93;;;0.80;78.80;;;;;;5100082;28;20064;-61
2023/02/05 06:52:17;;;;;;;5.50;4.68;;;0.80;78.80;;;;;;5105849;28;20115;-50
2023/02/05 06:54:43;;;;;;;5.43;4.53;;;0.80;78.60;;;;;;5097935;28;20086;-54
2023/02/05 06:57:09;;;;;;;5.68;4.78;;;0.80;78.50;;;;;;5093696;28;20525;-65
2023/02/05 06:59:35;;;;;;;6.50;5.00;;;0.80;78.60;;;;;;5089011;28;20067;-65
2023/02/05 07:02:01;;;;;;;5.95;4.70;;;0.80;78.70;;;;;;5098716;28;20066;-60
2023/02/05 07:04:29;;;;;;;6.97;4.70;;;0.80;78.80;;;;;;5102512;28;20038;-60
2023/02/05 07:06:56;;;;;;;6.22;4.75;;;0.80;78.80;;;;;;5099649;28;20443;-62
2023/02/05 07:09:22;;;;;;;5.72;4.93;;;0.90;78.70;;;;;;5073509;28;20027;-61
2023/02/05 07:11:48;;;;;;;6.50;5.18;;;0.90;78.50;;;;;;5088383;28;20149;-60
2023/02/05 07:14:14;;;;;;;5.80;4.78;;;0.90;78.50;;;;;;5089097;28;20079;-59
2023/02/05 07:16:40;;;;;;;8.73;5.38;;;0.90;78.40;;;;;;5084012;28;20031;-59
2023/02/05 07:19:05;;;;;;;5.47;4.25;;;0.90;78.30;;;;;;5085599;28;20028;-60
2023/02/05 07:21:31;;;;;;;4.75;4.18;;;0.90;78.30;;;;;;5078436;28;20382;-61
2023/02/05 07:23:57;;;;;;;6.18;4.57;;;1.00;78.50;;;;;;5089087;28;20063;-60
2023/02/05 07:26:22;;;;;;;6.32;4.53;;;0.90;78.40;;;;;;5079770;28;20017;-57
2023/02/05 07:28:48;;;;;;;5.95;4.70;;;0.90;78.30;;;;;;5084475;28;20039;-52
2023/02/05 07:31:17;;;;;;;5.70;4.43;;;1.00;78.50;;;;;;5090466;28;20059;-63
2023/02/05 07:33:46;;;;;;;7.20;4.88;;;1.00;78.50;;;;;;5088459;28;20058;-64
2023/02/05 07:36:17;;;;;;;6.15;4.70;;;1.00;78.60;;;;;;5090627;28;20533;-61
2023/02/05 07:38:44;;;;;;;5.70;4.47;;;1.10;78.60;;;;;;5089527;28;20125;-61
2023/02/05 07:41:11;;;;;;;6.15;5.00;;;1.10;78.50;;;;;;5081907;28;20432;-64
2023/02/05 07:43:38;;;;;;;6.55;4.85;;;1.10;78.30;;;;;;5089132;28;20031;-64
2023/02/05 07:46:09;;;;;;;7.13;4.95;;;1.10;78.20;;;;;;5090953;28;20111;-61
2023/02/05 07:48:35;;;;;;;5.95;5.00;;;1.10;78.30;;;;;;5079393;28;20069;-62
2023/02/05 07:51:01;;;;;;;5.22;4.60;;;1.10;78.40;;;;;;5081995;28;20058;-63
2023/02/05 07:53:27;;;;;;;5.32;4.60;;;1.10;78.40;;;;;;5081191;28;20162;-63
2023/02/05 07:55:53;;;;;;;6.18;5.00;;;1.10;78.30;;;;;;5093344;28;20158;-66
2023/02/05 07:58:19;;;;;;;6.32;4.90;;;1.20;78.30;;;;;;5095675;28;20077;-66
2023/02/05 08:00:45;;;;;;;6.75;4.93;;;1.20;78.30;;;;;;5101210;28;20397;-54
2023/02/05 08:03:10;;;;;;;6.07;4.80;;;1.10;78.20;;;;;;5092368;28;20426;-53
2023/02/05 08:05:37;;;;;;;6.50;4.97;;;1.20;78.50;;;;;;5090302;28;20036;-61
2023/02/05 08:08:04;;;;;;;8.32;4.80;;;1.20;78.20;;;;;;5094606;28;20133;-61
2023/02/05 08:10:29;;;;;;;5.68;4.85;;;1.20;78.30;;;;;;5087165;28;20044;-65
2023/02/05 08:12:55;;;;;;;6.93;5.32;;;1.20;78.30;;;;;;5092327;28;20028;-62
2023/02/05 08:15:21;;;;;;;5.60;4.40;;;1.10;78.30;;;;;;5093032;28;20114;-66
2023/02/05 08:17:46;;;;;;;5.68;4.35;;;1.20;78.50;;;;;;5087459;28;20028;-66
2023/02/05 08:20:12;;;;;;;5.72;4.65;;;1.20;78.30;;;;;;5073259;28;20159;-66
2023/02/05 08:22:39;;;;;;;6.03;4.82;;;1.20;78.40;;;;;;5094231;28;20036;-60
2023/02/05 08:25:07;;;;;;;6.15;4.70;;;1.20;78.30;;;;;;5097044;28;20032;-60
2023/02/05 08:27:35;;;;;;;6.50;5.05;;;1.20;78.30;;;;;;5101036;28;20054;-51
2023/02/05 08:30:01;;;;;;;6.70;5.07;;;1.30;78.30;;;;;;5102183;28;20491;-49
2023/02/05 08:32:27;;;;;;;6.18;5.15;;;1.30;78.30;;;;;;5110488;28;20689;-60
2023/02/05 08:34:52;;;;;;;5.82;4.22;;;1.30;78.20;;;;;;5091865;28;20025;-59
2023/02/05 08:37:18;;;;;;;7.00;5.10;;;1.30;78.10;;;;;;5087293;28;20385;-63
2023/02/05 08:39:45;;;;;;;5.90;4.55;;;1.40;78.10;;;;;;5089131;28;20445;-64
2023/02/05 08:42:10;;;;;;;10.18;4.78;;;1.40;78.10;;;;;;5076560;28;20033;-64
2023/02/05 08:44:36;;;;;;;7.00;5.22;;;1.40;78.10;;;;;;5077377;28;20039;-64
2023/02/05 08:47:02;;;;;;;6.13;4.85;;;1.50;78.00;;;;;;5089635;28;20058;-60
2023/02/05 08:49:27;;;;;;;6.88;4.80;;;1.50;77.90;;;;;;5087488;28;20028;-61
2023/02/05 08:51:53;;;;;;;6.32;4.93;;;1.50;77.80;;;;;;5092079;28;20042;-55
2023/02/05 08:54:19;;;;;;;5.85;4.63;;;1.50;77.80;;;;;;5090839;28;20481;-50
2023/02/05 08:56:47;;;;;;;7.07;5.38;;;1.50;77.90;;;;;;5102836;28;20055;-63
2023/02/05 08:59:13;;;;;;;7.07;5.00;;;1.50;77.70;;;;;;5083746;28;20039;-63
2023/02/05 09:01:40;;;;;;;5.65;4.55;;;1.50;77.70;;;;;;5095507;28;20032;-55
2023/02/05 09:04:12;;;;;;;6.63;4.70;;;1.50;77.70;;;;;;5101712;28;20477;-57
2023/02/05 09:06:38;;;;;;;6.82;5.35;;;1.50;77.70;;;;;;5099209;28;20573;-60
2023/02/05 09:09:04;;;;;;;6.32;4.95;;;1.60;77.80;;;;;;5094900;28;20028;-63
2023/02/05 09:11:29;;;;;;;6.35;5.00;;;1.50;77.80;;;;;;5101152;28;20051;-62
2023/02/05 09:13:56;;;;;;;5.72;4.70;;;1.60;77.70;;;;;;5103797;28;20111;-62
2023/02/05 09:16:22;;;;;;;6.32;4.80;;;1.60;77.80;;;;;;5101279;28;20020;-62
2023/02/05 09:18:48;;;;;;;7.53;5.32;;;1.60;77.70;;;;;;5094287;28;20035;-60
2023/02/05 09:21:14;;;;;;;6.78;4.65;;;1.60;77.50;;;;;;5094902;28;20031;-62
2023/02/05 09:23:39;;;;;;;6.07;4.70;;;1.60;77.60;;;;;;5099959;28;20032;-61
2023/02/05 09:26:08;;;;;;;6.03;5.05;;;1.60;77.70;;;;;;5109954;28;20416;-60
2023/02/05 09:28:34;;;;;;;6.80;5.07;;;1.60;77.50;;;;;;5102067;28;20028;-59
2023/02/05 09:31:14;;;;;;;7.13;5.20;;;1.50;77.60;;;;;;5097109;28;20047;-55
2023/02/05 09:33:40;;;;;;;6.63;5.25;;;1.60;77.60;;;;;;5085445;28;20568;-55
2023/02/05 09:36:12;;;;;;;7.50;5.25;;;1.50;77.60;;;;;;5099588;28;20040;-60
2023/02/05 09:38:40;;;;;;;6.65;4.97;;;1.50;77.70;;;;;;5092549;28;20039;-61
2023/02/05 09:41:12;;;;;;;6.72;4.90;;;1.50;77.70;;;;;;5077635;28;20498;-53
2023/02/05 09:43:56;;;;;;;;;;;1.50;77.80;;;;;;5089399;28;20040;-52
2023/02/05 09:46:46;;;;;;;6.07;4.70;;;1.50;77.80;;;;;;5093956;28;19935;-60
2023/02/05 09:49:28;;;;;;;7.05;5.40;;;1.50;78.10;;;;;;5087164;28;20024;-59
2023/02/05 09:52:26;;;;;;;7.45;5.03;;;1.50;78.10;;;;;;5084105;28;20497;-58
2023/02/05 09:54:57;;;;;;;7.43;5.30;;;1.50;78.20;;;;;;5090608;28;20027;-61
2023/02/05 09:57:38;;;;;;;7.47;5.63;;;1.60;78.30;;;;;;5097146;28;20118;-53
2023/02/05 10:00:15;;;;;;;6.27;5.00;;;1.60;79.00;;;;;;5077588;28;20033;-54
2023/02/05 10:03:10;;;;;;;7.63;5.88;;;1.60;78.60;;;;;;5077265;28;20051;-62
2023/02/05 10:05:44;;;;;;;6.35;5.18;;;1.60;78.60;;;;;;5082069;28;20045;-61
2023/02/05 10:08:34;;;;;;;5.90;5.00;;;1.70;78.70;;;;;;5089592;28;20024;-61
2023/02/05 10:11:03;;;;;;;6.60;5.38;;;1.70;78.60;;;;;;5074336;28;20032;-62
2023/02/05 10:13:35;;;;;;;5.80;4.80;;;1.70;78.70;;;;;;5092750;28;20389;-61
2023/02/05 10:16:13;;;;;;;5.18;4.43;;;1.80;78.80;;;;;;5086187;28;20029;-52
2023/02/05 10:19:15;;;;;;;7.38;5.63;;;1.80;78.70;;;;;;5097514;28;20047;-48
2023/02/05 10:21:44;;;;;;;;;;;1.80;78.60;;;;;;5090818;28;20036;-60
2023/02/05 10:24:22;;;;;;;6.00;4.75;;;1.70;78.60;;;;;;5111057;28;19908;-59
2023/02/05 10:26:57;;;;;;;5.85;4.80;;;1.80;78.80;;;;;;5092242;28;20359;-54
2023/02/05 10:29:34;;;;;;;7.38;5.20;;;1.80;78.70;;;;;;5073866;28;20037;-51
2023/02/05 10:32:18;;;;;;;6.47;5.13;;;1.90;78.80;;;;;;5100791;28;20081;-62
2023/02/05 10:34:52;;;;;;;6.50;4.97;;;1.90;78.80;;;;;;5082250;28;20123;-62
2023/02/05 10:37:28;;;;;;;6.38;4.97;;;1.90;78.80;;;;;;5086915;28;20355;-64
2023/02/05 10:39:56;;;;;;;7.30;5.53;;;2.00;78.90;;;;;;5090023;28;20119;-60
2023/02/05 10:42:37;;;;;;;7.90;6.03;;;2.00;78.80;;;;;;5103570;28;20388;-59
2023/02/05 10:45:24;;;;;;;7.47;5.35;;;2.00;78.90;;;;;;5073837;28;20052;-58
2023/02/05 10:48:02;;;;;;;7.38;5.60;;;2.10;79.00;;;;;;5093451;28;20036;-55
2023/02/05 10:50:58;;;;;;;8.32;5.70;;;2.10;79.00;;;;;;5092367;28;20062;-60
2023/02/05 10:53:26;;;;;;;7.60;5.32;;;2.20;78.90;;;;;;5098372;28;20485;-61
2023/02/05 10:55:52;;;;;;;7.63;5.43;;;2.20;78.90;;;;;;5106326;28;20446;-61
2023/02/05 10:58:42;;;;;;;7.63;6.00;;;2.30;78.70;;;;;;5084613;28;20123;-61
2023/02/05 11:01:13;;;;;;;7.25;5.72;;;2.30;78.40;;;;;;5096286;28;20460;-58
2023/02/05 11:03:39;;;;;;;8.95;5.90;;;2.30;79.20;;;;;;5103918;28;20036;-54
2023/02/05 11:06:09;;;;;;;7.70;5.72;;;2.30;78.40;;;;;;5102206;28;20032;-53
2023/02/05 11:08:41;;;;;;;8.00;5.13;;;2.30;78.40;;;;;;5080728;28;20122;-56
2023/02/05 11:11:23;;;;;;;9.43;5.63;;;2.30;78.60;;;;;;5089015;28;20393;-53
2023/02/05 11:14:01;;;;;;;7.65;5.93;;;2.40;78.70;;;;;;5102668;28;20046;-52
2023/02/05 11:16:39;;;;;;;8.95;6.32;;;2.40;78.60;;;;;;5088959;28;20032;-60
2023/02/05 11:19:35;;;;;;;9.35;6.60;;;2.40;78.60;;;;;;5088111;28;20032;-60
2023/02/05 11:22:03;;;;;;;9.20;5.95;;;2.50;78.70;;;;;;5081014;28;20401;-63
2023/02/05 11:24:30;;;;;;;9.00;6.28;;;2.50;78.70;;;;;;5086280;28;20109;-64
2023/02/05 11:27:26;;;;;;;8.88;6.53;;;2.50;78.60;;;;;;5091522;28;20119;-60
2023/02/05 11:29:54;;;;;;;8.57;6.22;;;2.50;78.60;;;;;;5070339;28;20047;-60
2023/02/05 11:32:31;;;;;;;7.53;5.82;;;2.60;78.80;;;;;;5085196;28;20134;-58
2023/02/05 11:35:08;;;;;;;10.68;7.10;;;2.60;78.60;;;;;;5088987;28;20020;-58
2023/02/05 11:37:38;;;;;;;10.35;6.85;;;2.70;78.80;;;;;;5085493;28;20090;-54
2023/02/05 11:40:04;;;;;;;9.93;6.55;;;2.70;78.70;;;;;;5095986;28;20064;-53
2023/02/05 11:42:30;;;;;;;10.43;7.32;;;2.70;78.70;;;;;;5096930;28;20123;-61
2023/02/05 11:44:59;;;;;;;8.73;6.35;;;2.70;78.60;;;;;;5095765;28;20036;-60
2023/02/05 11:47:34;;;;;;;10.10;6.68;;;2.80;78.60;;;;;;5098534;28;20177;-59
2023/02/05 11:50:02;;;;;;;9.95;7.00;;;2.80;78.50;;;;;;5106401;28;20050;-60
2023/02/05 11:52:36;;;;;;;7.40;5.90;;;2.80;78.40;;;;;;5109279;28;20040;-61
2023/02/05 11:55:03;;;;;;;9.48;6.38;;;2.90;78.50;;;;;;5068204;28;20032;-61
2023/02/05 11:57:34;;;;;;;8.63;6.45;;;2.80;78.50;;;;;;5092288;28;20078;-51
2023/02/05 12:00:19;;;;;;;9.82;6.88;;;2.90;78.30;;;;;;5094500;28;20039;-51
2023/02/05 12:02:50;;;;;;;10.07;7.32;;;2.80;78.10;;;;;;5102180;28;20135;-52
2023/02/05 12:05:15;;;;;;;9.32;6.30;;;2.80;78.30;;;;;;5100028;28;20047;-49
2023/02/05 12:08:18;;;;;;;10.63;7.30;;;2.80;78.50;;;;;;5078436;28;20513;-53
2023/02/05 12:10:53;;;;;;;10.48;7.25;;;2.90;78.60;;;;;;5076398;28;20525;-56
2023/02/05 12:13:41;;;;;;;9.02;6.88;;;2.80;78.60;;;;;;5075713;28;20029;-55
2023/02/05 12:16:33;;;;;;;9.50;6.10;;;2.80;78.40;;;;;;5074483;28;20511;-59
2023/02/05 12:19:15;;;;;;;8.10;6.53;;;2.80;78.30;;;;;;5092373;28;20111;-58
2023/02/05 12:21:59;;;;;;;8.98;6.80;;;2.90;78.10;;;;;;5096874;28;20040;-65
2023/02/05 12:24:52;;;;;;;8.10;6.22;;;2.90;78.10;;;;;;5087739;28;20046;-64
2023/02/05 12:27:33;;;;;;;9.32;7.35;;;2.90;78.00;;;;;;5085782;28;20076;-61
2023/02/05 12:30:40;;;;;;;10.38;7.25;;;2.90;77.90;;;;;;5088493;28;20043;-61
2023/02/05 12:33:42;;;;;;;9.10;6.57;;;2.90;77.80;;;;;;5016540;28;20057;-61
2023/02/05 12:36:33;;;;;;;8.95;6.65;;;2.90;77.80;;;;;;5044781;28;20983;-56
2023/02/05 12:39:19;;;;;;;8.60;6.88;;;2.90;77.50;;;;;;5091536;28;20068;-54
2023/02/05 12:42:00;;;;;;;9.32;6.90;;;2.90;77.50;;;;;;5080403;28;20444;-61
2023/02/05 12:44:49;;;;;;;11.05;7.80;;;2.90;77.40;;;;;;5105446;28;20028;-61
2023/02/05 12:47:23;;;;;;;11.57;7.43;;;2.90;77.30;;;;;;5091070;28;20590;-61
2023/02/05 12:50:14;;;;;;;9.55;6.43;;;2.90;77.50;;;;;;5092349;28;20035;-61
2023/02/05 12:53:09;;;;;;;9.95;7.40;;;2.90;77.40;;;;;;5087738;28;20039;-59
2023/02/05 12:56:04;;;;;;;10.73;7.40;;;2.90;77.40;;;;;;5049187;28;20455;-60
2023/02/05 12:58:39;;;;;;;8.40;6.28;;;2.80;77.30;;;;;;5082092;28;20036;-60
2023/02/05 13:01:17;;;;;;;11.10;7.18;;;2.80;77.30;;;;;;5085190;28;20069;-60
2023/02/05 13:03:49;;;;;;;9.07;6.88;;;2.80;77.30;;;;;;5086347;28;20036;-60
2023/02/05 13:06:30;;;;;;;10.50;7.07;;;2.80;77.30;;;;;;5093171;28;20097;-61
2023/02/05 13:09:28;;;;;;;9.45;6.57;;;2.80;77.20;;;;;;5095167;28;20145;-59
2023/02/05 13:12:03;;;;;;;9.50;6.93;;;2.80;77.10;;;;;;5077730;28;20121;-50
2023/02/05 13:14:36;;;;;;;9.10;6.70;;;2.80;77.20;;;;;;5103007;28;20450;-52
2023/02/05 13:17:24;;;;;;;10.15;6.75;;;2.80;77.20;;;;;;5091927;28;20462;-59
2023/02/05 13:20:04;;;;;;;10.00;6.85;;;2.80;77.30;;;;;;5095861;28;20036;-60
2023/02/05 13:28:40;;;;;;;9.73;7.60;;;2.70;77.50;;;;;;5097839;28;20405;-62